createdAt,value
2022-12-16T00:02:18.577Z,84.68
2022-12-16T00:05:22.634Z,84.22
2022-12-16T00:08:25.220Z,84.89
2022-12-16T00:11:27.986Z,84.81
2022-12-16T00:14:30.594Z,84.74
2022-12-16T00:17:33.198Z,84.55
2022-12-16T00:20:37.114Z,84.31
2022-12-16T00:23:41.671Z,84.67
2022-12-16T00:26:44.328Z,84.62
2022-12-16T00:29:46.938Z,84.17
2022-12-16T00:32:49.518Z,84.30
2022-12-16T00:35:55.355Z,84.73
2022-12-16T00:38:57.973Z,84.78
2022-12-16T00:42:00.554Z,85.29
2022-12-16T00:45:04.664Z,84.71
2022-12-16T00:48:08.646Z,84.33
2022-12-16T00:51:12.588Z,85.32
2022-12-16T00:54:15.190Z,84.67
2022-12-16T00:57:17.909Z,83.29
2022-12-16T01:00:22.352Z,84.17
2022-12-16T01:03:25.053Z,84.42
2022-12-16T01:06:29.111Z,83.69
2022-12-16T01:09:31.689Z,84.22
2022-12-16T01:12:35.396Z,84.08
2022-12-16T01:15:38.662Z,84.16
2022-12-16T01:18:41.269Z,84.36
2022-12-16T01:21:45.209Z,84.63
2022-12-16T01:24:47.957Z,84.86
2022-12-16T01:27:50.541Z,84.35
2022-12-16T01:30:57.081Z,84.59
2022-12-16T01:33:59.680Z,84.49
2022-12-16T01:37:03.618Z,84.61
2022-12-16T01:40:07.499Z,84.65
2022-12-16T01:43:13.496Z,84.39
2022-12-16T01:46:22.225Z,84.43
2022-12-16T01:49:29.092Z,84.44
2022-12-16T01:52:37.478Z,84.46
2022-12-16T01:55:46.148Z,83.98
2022-12-16T01:58:48.784Z,84.73
2022-12-16T02:01:51.656Z,84.23
2022-12-16T02:05:13.304Z,84.98
2022-12-16T02:08:18.784Z,84.30
2022-12-16T02:11:37.158Z,85.43
2022-12-16T02:14:57.272Z,84.31
2022-12-16T02:18:10.011Z,84.58
2022-12-16T02:21:33.376Z,85.23
2022-12-16T02:25:00.581Z,84.53
2022-12-16T02:28:09.651Z,84.92
2022-12-16T02:31:26.039Z,84.95
2022-12-16T02:34:38.394Z,85.18
2022-12-16T02:37:49.155Z,84.29
2022-12-16T02:40:56.433Z,84.36
2022-12-16T02:44:02.364Z,84.93
2022-12-16T02:47:06.372Z,84.77
2022-12-16T02:50:19.206Z,84.20
2022-12-16T02:53:22.545Z,84.44
2022-12-16T02:56:41.207Z,84.74
2022-12-16T02:59:56.658Z,84.58
2022-12-16T03:03:03.905Z,83.96
2022-12-16T03:06:07.499Z,84.18
2022-12-16T03:09:14.331Z,83.53
2022-12-16T03:12:20.956Z,84.21
2022-12-16T03:15:26.777Z,84.56
2022-12-16T03:18:31.022Z,84.12
2022-12-16T03:21:39.797Z,84.04
2022-12-16T03:24:43.313Z,84.87
2022-12-16T03:27:53.312Z,84.90
2022-12-16T03:31:02.777Z,84.78
2022-12-16T03:34:12.897Z,84.36
2022-12-16T03:37:15.680Z,84.65
2022-12-16T03:40:19.558Z,84.13
2022-12-16T03:43:22.387Z,83.67
2022-12-16T03:46:25.427Z,82.28
2022-12-16T03:49:29.441Z,82.01
2022-12-16T03:52:32.574Z,82.79
2022-12-16T03:55:35.339Z,82.85
2022-12-16T03:58:39.821Z,82.55
2022-12-16T04:01:43.215Z,82.52
2022-12-16T04:04:47.235Z,82.89
2022-12-16T04:07:49.888Z,82.28
2022-12-16T04:11:10.417Z,83.34
2022-12-16T04:14:30.789Z,83.01
2022-12-16T04:17:47.546Z,83.27
2022-12-16T04:21:12.871Z,83.04
2022-12-16T04:24:23.947Z,83.51
2022-12-16T04:27:27.596Z,82.52
2022-12-16T04:30:34.619Z,82.98
2022-12-16T04:33:55.034Z,83.40
2022-12-16T04:37:18.603Z,83.33
2022-12-16T04:40:38.785Z,82.92
2022-12-16T04:44:01.234Z,81.77
2022-12-16T04:47:21.755Z,82.74
2022-12-16T04:50:42.180Z,83.43
2022-12-16T04:54:09.324Z,82.55
2022-12-16T04:57:29.544Z,82.53
2022-12-16T05:00:55.732Z,82.10
2022-12-16T05:04:16.132Z,81.77
2022-12-16T05:07:38.392Z,81.24
2022-12-16T05:11:00.115Z,81.53
2022-12-16T05:14:20.445Z,81.34
2022-12-16T05:17:40.740Z,81.20
2022-12-16T05:21:01.082Z,80.59
2022-12-16T05:24:21.410Z,81.46
2022-12-16T05:27:42.993Z,81.90
2022-12-16T05:31:03.364Z,81.17
2022-12-16T05:34:23.546Z,81.15
2022-12-16T05:37:43.943Z,81.53
2022-12-16T05:41:04.378Z,82.63
2022-12-16T05:44:25.649Z,82.92
2022-12-16T05:47:45.929Z,81.89
2022-12-16T05:51:06.245Z,82.12
2022-12-16T05:54:26.580Z,81.56
2022-12-16T05:57:46.902Z,81.98
2022-12-16T06:01:08.435Z,80.97
2022-12-16T06:04:28.695Z,81.13
2022-12-16T06:07:49.118Z,81.33
2022-12-16T06:11:09.604Z,80.70
2022-12-16T06:14:29.933Z,80.92
2022-12-16T06:17:51.317Z,80.41
2022-12-16T06:21:11.502Z,79.53
2022-12-16T06:24:31.729Z,79.43
2022-12-16T06:27:52.152Z,80.30
2022-12-16T06:31:12.526Z,81.85
2022-12-16T06:34:34.150Z,82.46
2022-12-16T06:37:54.292Z,83.03
2022-12-16T06:41:14.461Z,81.99
2022-12-16T06:44:34.617Z,81.93
2022-12-16T06:47:54.898Z,82.78
2022-12-16T06:51:16.430Z,82.16
2022-12-16T06:54:36.797Z,82.73
2022-12-16T06:57:56.965Z,82.43
2022-12-16T07:01:17.297Z,83.12
2022-12-16T07:04:37.741Z,82.08
2022-12-16T07:08:05.767Z,81.29
2022-12-16T07:11:26.039Z,80.63
2022-12-16T07:14:46.403Z,81.24
2022-12-16T07:18:06.668Z,80.42
2022-12-16T07:21:27.072Z,80.42
2022-12-16T07:24:48.522Z,80.82
2022-12-16T07:28:15.150Z,80.81
2022-12-16T07:31:35.652Z,80.77
2022-12-16T07:34:55.602Z,80.26
2022-12-16T07:38:15.820Z,81.19
2022-12-16T07:41:38.261Z,81.37
2022-12-16T07:44:58.536Z,83.15
2022-12-16T07:48:18.797Z,83.14
2022-12-16T07:51:39.188Z,81.95
2022-12-16T07:54:59.326Z,81.86
2022-12-16T07:58:23.086Z,81.51
2022-12-16T08:01:43.368Z,82.60
2022-12-16T08:05:03.398Z,81.96
2022-12-16T08:08:24.298Z,82.06
2022-12-16T08:11:44.633Z,82.65
2022-12-16T08:15:06.094Z,83.06
2022-12-16T08:18:26.276Z,82.64
2022-12-16T08:21:46.652Z,83.45
2022-12-16T08:25:06.716Z,84.74
2022-12-16T08:28:32.222Z,84.16
2022-12-16T08:31:53.802Z,83.81
2022-12-16T08:35:15.754Z,83.87
2022-12-16T08:38:47.484Z,83.17
2022-12-16T08:42:07.511Z,83.36
2022-12-16T08:45:28.275Z,83.86
2022-12-16T08:48:49.783Z,83.73
2022-12-16T08:52:10.023Z,84.59
2022-12-16T08:55:30.418Z,84.43
2022-12-16T08:58:50.771Z,84.96
2022-12-16T09:02:11.655Z,84.59
2022-12-16T09:05:33.609Z,84.77
2022-12-16T09:08:53.902Z,85.04
2022-12-16T09:12:14.134Z,85.33
2022-12-16T09:15:34.447Z,84.28
2022-12-16T09:18:54.636Z,84.65
2022-12-16T09:22:16.290Z,84.97
2022-12-16T09:25:36.501Z,85.29
2022-12-16T09:28:56.786Z,85.17
2022-12-16T09:32:17.305Z,86.49
2022-12-16T09:35:37.787Z,85.96
2022-12-16T09:38:59.406Z,86.02
2022-12-16T09:42:27.669Z,85.16
2022-12-16T09:45:57.430Z,85.28
2022-12-16T09:49:25.015Z,85.57
2022-12-16T09:52:47.897Z,84.83
2022-12-16T09:56:10.389Z,85.27
2022-12-16T09:59:33.954Z,85.11
2022-12-16T10:02:54.498Z,85.35
2022-12-16T10:06:23.953Z,85.97
2022-12-16T10:09:50.711Z,85.28
2022-12-16T10:13:18.157Z,85.81
2022-12-16T10:16:47.149Z,85.80
2022-12-16T10:20:17.392Z,85.70
2022-12-16T10:23:44.978Z,85.92
2022-12-16T10:27:11.465Z,86.54
2022-12-16T10:30:34.000Z,86.11
2022-12-16T10:33:54.908Z,86.55
2022-12-16T10:37:20.917Z,85.92
2022-12-16T10:40:45.633Z,84.82
2022-12-16T10:44:06.900Z,86.16
2022-12-16T10:47:30.397Z,85.46
2022-12-16T10:50:50.854Z,86.08
2022-12-16T10:54:11.548Z,86.00
2022-12-16T10:57:40.268Z,87.04
2022-12-16T11:01:03.613Z,87.25
2022-12-16T11:05:01.027Z,86.87
2022-12-16T11:08:21.216Z,85.98
2022-12-16T11:11:43.483Z,86.34
2022-12-16T11:15:28.880Z,86.10
2022-12-16T11:18:49.454Z,86.60
2022-12-16T11:22:24.716Z,86.79
2022-12-16T11:25:53.293Z,87.34
2022-12-16T11:29:21.648Z,86.96
2022-12-16T11:32:47.832Z,86.93
2022-12-16T11:36:11.831Z,86.88
2022-12-16T11:39:36.804Z,86.77
2022-12-16T11:43:00.184Z,87.09
2022-12-16T11:46:28.947Z,86.43
2022-12-16T11:49:50.823Z,86.92
2022-12-16T11:53:26.557Z,86.53
2022-12-16T11:56:51.382Z,86.19
2022-12-16T12:00:15.620Z,87.09
2022-12-16T12:03:56.003Z,86.95
2022-12-16T12:07:31.931Z,87.35
2022-12-16T12:11:17.460Z,86.44
2022-12-16T12:14:50.350Z,86.80
2022-12-16T12:18:16.692Z,86.52
2022-12-16T12:21:42.603Z,86.76
2022-12-16T12:25:10.647Z,86.72
2022-12-16T12:28:42.042Z,87.04
2022-12-16T12:32:12.046Z,86.92
2022-12-16T12:35:44.994Z,86.92
2022-12-16T12:39:15.348Z,87.06
2022-12-16T12:43:01.560Z,87.43
2022-12-16T12:46:27.438Z,87.09
2022-12-16T12:49:58.066Z,86.68
2022-12-16T12:53:33.744Z,87.38
2022-12-16T12:57:06.048Z,86.97
2022-12-16T13:00:35.583Z,86.75
2022-12-16T13:03:59.182Z,86.66
2022-12-16T13:07:21.786Z,87.36
2022-12-16T13:10:51.465Z,86.49
2022-12-16T13:14:11.560Z,86.68
2022-12-16T13:17:31.808Z,86.86
2022-12-16T13:20:55.052Z,86.93
2022-12-16T13:24:39.242Z,87.14
2022-12-16T13:28:13.159Z,86.85
2022-12-16T13:31:34.085Z,87.02
2022-12-16T13:34:54.284Z,86.87
2022-12-16T13:38:16.627Z,86.29
2022-12-16T13:42:09.748Z,86.78
2022-12-16T13:45:49.409Z,86.50
2022-12-16T13:49:09.735Z,86.08
2022-12-16T13:52:35.675Z,86.52
2022-12-16T13:56:15.178Z,86.47
2022-12-16T13:59:40.284Z,86.37
2022-12-16T14:03:10.666Z,86.10
2022-12-16T14:06:37.476Z,86.53
2022-12-16T14:10:00.962Z,85.87
2022-12-16T14:13:26.001Z,86.41
2022-12-16T14:17:01.202Z,86.51
2022-12-16T14:20:33.072Z,87.06
2022-12-16T14:23:58.223Z,86.75
2022-12-16T14:27:24.683Z,86.57
2022-12-16T14:30:44.820Z,86.95
2022-12-16T14:34:11.123Z,87.26
2022-12-16T14:37:32.873Z,87.08
2022-12-16T14:40:49.638Z,86.90
2022-12-16T14:44:09.992Z,87.47
2022-12-16T14:47:35.693Z,87.38
2022-12-16T14:50:57.348Z,86.95
2022-12-16T14:54:34.864Z,87.29
2022-12-16T14:57:55.194Z,87.16
2022-12-16T15:01:17.688Z,87.20
2022-12-16T15:04:40.130Z,86.95
2022-12-16T15:08:02.044Z,87.21
2022-12-16T15:11:24.192Z,86.93
2022-12-16T15:14:49.025Z,87.18
2022-12-16T15:18:13.276Z,87.39
2022-12-16T15:21:33.455Z,87.46
2022-12-16T15:24:57.331Z,87.30
2022-12-16T15:28:17.611Z,87.63
2022-12-16T15:31:43.875Z,87.32
2022-12-16T15:35:06.487Z,87.45
2022-12-16T15:38:29.679Z,87.54
2022-12-16T15:41:53.323Z,87.04
2022-12-16T15:45:13.494Z,86.61
2022-12-16T15:48:38.628Z,87.50
2022-12-16T15:52:15.417Z,88.18
2022-12-16T15:55:44.924Z,87.29
2022-12-16T15:59:06.583Z,87.86
2022-12-16T16:02:34.690Z,87.26
2022-12-16T16:05:54.841Z,87.60
2022-12-16T16:09:15.172Z,87.52
2022-12-16T16:12:36.968Z,87.77
2022-12-16T16:15:54.915Z,87.96
2022-12-16T16:19:15.315Z,87.83
2022-12-16T16:22:35.967Z,88.28
2022-12-16T16:26:02.091Z,88.33
2022-12-16T16:29:24.610Z,87.14
2022-12-16T16:32:46.160Z,87.48
2022-12-16T16:36:06.545Z,87.74
2022-12-16T16:39:27.341Z,88.05
2022-12-16T16:42:48.028Z,88.25
2022-12-16T16:46:12.354Z,88.16
2022-12-16T16:49:39.393Z,87.92
2022-12-16T16:52:59.737Z,88.10
2022-12-16T16:56:20.224Z,88.21
2022-12-16T16:59:41.949Z,88.64
2022-12-16T17:03:02.573Z,89.25
2022-12-16T17:06:24.663Z,88.68
2022-12-16T17:09:44.960Z,88.47
2022-12-16T17:13:05.222Z,88.67
2022-12-16T17:16:28.143Z,88.49
2022-12-16T17:19:56.890Z,88.70
2022-12-16T17:23:18.424Z,88.58
2022-12-16T17:26:38.802Z,88.51
2022-12-16T17:29:59.114Z,88.71
2022-12-16T17:33:19.252Z,88.52
2022-12-16T17:36:39.530Z,88.38
2022-12-16T17:40:09.416Z,89.06
2022-12-16T17:43:29.748Z,88.54
2022-12-16T17:46:50.812Z,88.07
2022-12-16T17:50:13.104Z,88.71
2022-12-16T17:53:33.872Z,89.12
2022-12-16T17:56:55.525Z,88.67
2022-12-16T18:00:15.743Z,88.69
2022-12-16T18:03:32.734Z,89.25
2022-12-16T18:06:53.248Z,88.98
2022-12-16T18:10:13.507Z,88.55
2022-12-16T18:13:35.556Z,89.64
2022-12-16T18:16:56.025Z,90.25
2022-12-16T18:20:16.341Z,89.76
2022-12-16T18:23:36.904Z,89.51
2022-12-16T18:27:02.425Z,89.62
2022-12-16T18:30:25.017Z,89.91
2022-12-16T18:33:45.178Z,89.29
2022-12-16T18:37:05.473Z,89.45
2022-12-16T18:40:27.625Z,88.97
2022-12-16T18:43:47.880Z,88.71
2022-12-16T18:47:09.458Z,88.79
2022-12-16T18:50:35.795Z,89.86
2022-12-16T18:53:57.921Z,89.73
2022-12-16T18:57:29.634Z,89.56
2022-12-16T19:00:50.852Z,89.97
2022-12-16T19:04:13.411Z,89.51
2022-12-16T19:07:34.205Z,89.39
2022-12-16T19:10:54.410Z,89.22
2022-12-16T19:14:14.793Z,89.10
2022-12-16T19:17:37.294Z,89.69
2022-12-16T19:20:58.894Z,89.39
2022-12-16T19:24:19.139Z,89.71
2022-12-16T19:27:39.462Z,89.75
2022-12-16T19:30:59.704Z,89.75
2022-12-16T19:34:19.937Z,89.04
2022-12-16T19:37:41.653Z,89.33
2022-12-16T19:41:08.953Z,89.33
2022-12-16T19:44:29.661Z,89.75
2022-12-16T19:47:50.125Z,89.98
2022-12-16T19:51:15.397Z,89.23
2022-12-16T19:54:36.978Z,89.38
2022-12-16T19:57:57.314Z,89.06
2022-12-16T20:01:17.922Z,88.98
2022-12-16T20:04:38.026Z,89.67
2022-12-16T20:07:58.267Z,90.08
2022-12-16T20:11:24.738Z,89.83
2022-12-16T20:14:45.516Z,88.75
2022-12-16T20:18:17.177Z,89.59
2022-12-16T20:21:37.245Z,89.96
2022-12-16T20:24:57.534Z,89.77
2022-12-16T20:28:24.800Z,89.36
2022-12-16T20:31:45.417Z,89.41
2022-12-16T20:35:05.622Z,89.70
2022-12-16T20:38:25.843Z,90.45
2022-12-16T20:41:46.127Z,89.48
2022-12-16T20:45:07.790Z,89.27
2022-12-16T20:48:32.600Z,89.48
2022-12-16T20:51:53.001Z,89.90
2022-12-16T20:55:16.224Z,90.64
2022-12-16T20:58:37.016Z,90.41
2022-12-16T21:05:38.965Z,90.11
2022-12-16T21:08:59.259Z,90.33
2022-12-16T21:12:19.593Z,89.96
2022-12-16T21:15:39.692Z,89.85
2022-12-16T21:19:01.280Z,90.46
2022-12-16T21:22:21.695Z,90.76
2022-12-16T21:25:41.924Z,89.35
2022-12-16T21:29:02.241Z,90.45
2022-12-16T21:32:22.464Z,89.37
2022-12-16T21:35:43.955Z,90.12
2022-12-16T21:39:04.205Z,89.30
2022-12-16T21:42:24.375Z,89.74
2022-12-16T21:45:44.713Z,90.40
2022-12-16T21:49:04.927Z,89.50
2022-12-16T21:52:26.468Z,89.11
2022-12-16T21:55:46.724Z,88.83
2022-12-16T21:59:07.075Z,89.01
2022-12-16T22:02:38.701Z,88.64
2022-12-16T22:05:59.189Z,89.21
2022-12-16T22:09:20.685Z,88.62
2022-12-16T22:12:41.069Z,89.21
2022-12-16T22:16:02.815Z,89.05
2022-12-16T22:19:23.388Z,90.36
2022-12-16T22:22:43.786Z,89.29
2022-12-16T22:26:05.501Z,89.12
2022-12-16T22:29:25.727Z,89.31
2022-12-16T22:32:45.926Z,89.94
2022-12-16T22:36:06.144Z,89.81
2022-12-16T22:39:26.402Z,90.74
2022-12-16T22:42:47.963Z,90.15
2022-12-16T22:46:16.843Z,89.38
2022-12-16T22:49:37.187Z,89.21
2022-12-16T22:52:57.413Z,89.50
2022-12-16T22:56:17.800Z,88.77
2022-12-16T22:59:39.460Z,88.94
2022-12-16T23:02:59.729Z,88.64
2022-12-16T23:06:28.415Z,89.49
2022-12-16T23:09:48.709Z,88.93
2022-12-16T23:13:09.030Z,89.49
2022-12-16T23:16:39.530Z,88.82
2022-12-16T23:19:59.698Z,88.65
2022-12-16T23:23:20.019Z,88.83
2022-12-16T23:26:40.306Z,88.32
2022-12-16T23:30:00.724Z,87.64
2022-12-16T23:33:22.226Z,88.28
2022-12-16T23:36:42.590Z,86.80
2022-12-16T23:40:02.996Z,88.19
2022-12-16T23:43:38.085Z,86.77
2022-12-16T23:46:58.580Z,86.00
2022-12-16T23:50:20.043Z,85.68
2022-12-16T23:53:40.512Z,85.50
2022-12-16T23:57:00.698Z,84.80
